Time;durP1;ratioP1;P1;durP2;ratioP2;P2;SDS_P1;SDS_P2;PMS_P1;PMS_P2;Temp;Humidity;BMP_temperature;BMP_pressure;BME280_temperature;BME280_humidity;BME280_pressure;Samples;Min_cycle;Max_cycle;Signal;HPM_P1;HPM_P2
2022/08/25 00:01:12;;;;;;;7.40;5.57;;;;;;;17.92;80.14;94137.63;4926206;29;20201;-94
2022/08/25 00:04:09;;;;;;;6.33;5.73;;;;;;;18.01;79.71;94126.03;4922476;29;20281;-95
2022/08/25 00:06:54;;;;;;;8.57;6.00;;;;;;;18.01;79.16;94131.72;4930095;29;20296;-95
2022/08/25 00:09:45;;;;;;;7.10;5.87;;;;;;;17.75;81.01;94128.34;4932238;29;20235;-96
2022/08/25 00:12:32;;;;;;;8.73;6.10;;;;;;;17.89;80.93;94142.47;4929082;29;20277;-96
2022/08/25 06:57:13;;;;;;;19.50;17.30;;;;;;;20.62;74.57;94048.06;4933219;29;20230;-96
2022/08/25 06:59:58;;;;;;;22.73;16.48;;;;;;;21.02;73.27;94037.38;4917952;29;20667;-96
2022/08/25 07:02:43;;;;;;;17.33;15.07;;;;;;;19.72;77.13;94058.22;4900578;29;20207;-95
2022/08/25 07:05:28;;;;;;;18.58;16.67;;;;;;;20.36;77.46;94052.84;4902208;29;20235;-96
2022/08/25 07:08:12;;;;;;;17.23;15.40;;;;;;;20.63;75.93;94054.50;4898374;29;20209;-96
2022/08/25 07:11:07;;;;;;;18.38;16.40;;;;;;;21.36;71.77;94049.94;4918014;29;20211;-96
2022/08/25 07:13:51;;;;;;;18.00;16.17;;;;;;;21.53;70.67;94045.53;4907998;29;20331;-96
2022/08/25 07:16:36;;;;;;;18.08;16.00;;;;;;;21.45;71.36;94047.38;4923459;29;20233;-96
2022/08/25 07:19:21;;;;;;;17.77;15.88;;;;;;;21.96;70.33;94041.91;4919007;29;20246;-96
2022/08/25 07:22:06;;;;;;;16.50;14.80;;;;;;;21.92;70.95;94041.75;4932467;28;20213;-96
2022/08/25 07:24:56;;;;;;;14.30;12.75;;;;;;;22.15;68.63;94043.19;4922049;29;20210;-96
2022/08/25 07:27:43;;;;;;;15.57;13.25;;;;;;;22.45;68.33;94044.09;4897276;29;20277;-96
2022/08/25 07:31:10;;;;;;;15.60;14.00;;;;;;;21.23;71.30;94048.09;4904864;29;20219;-96
2022/08/25 13:24:26;;;;;;;1.50;1.40;;;;;;;30.95;35.74;93898.16;4936985;29;20278;-96
2022/08/25 13:27:27;;;;;;;1.88;1.77;;;;;;;31.00;35.03;93906.78;4929550;29;20211;-96
2022/08/25 13:30:23;;;;;;;1.77;1.67;;;;;;;29.94;36.09;93897.81;4892746;29;20231;-95
2022/08/25 13:33:22;;;;;;;1.67;1.52;;;;;;;31.62;35.07;93900.59;4913092;29;20278;-95
2022/08/25 13:39:48;;;;;;;3.47;1.92;;;;;;;30.85;34.89;93891.72;4921697;29;20278;-96
2022/08/25 13:42:35;;;;;;;1.73;1.63;;;;;;;31.77;34.53;93892.50;4897299;29;20246;-96
2022/08/25 13:45:23;;;;;;;2.50;1.60;;;;;;;30.93;34.58;93891.66;4913829;29;20279;-95
2022/08/25 13:48:44;;;;;;;1.85;1.70;;;;;;;31.26;35.61;93892.19;4943486;29;20214;-96
2022/08/25 13:51:29;;;;;;;2.17;1.80;;;;;;;31.63;34.79;93890.44;4901333;29;20202;-95
2022/08/25 13:54:28;;;;;;;1.95;1.70;;;;;;;31.62;34.50;93886.09;4904199;29;20659;-96
2022/08/25 13:57:25;;;;;;;3.75;1.98;;;;;;;31.63;34.77;93890.44;4896592;29;20218;-96
2022/08/25 14:00:10;;;;;;;2.22;2.03;;;;;;;31.36;35.33;93892.09;4894054;29;20310;-93
2022/08/25 14:02:55;;;;;;;1.98;1.60;;;;;;;31.93;34.09;93880.00;4930412;29;20657;-96
2022/08/25 14:05:43;;;;;;;2.70;2.03;;;;;;;31.96;34.51;93887.25;4911683;29;20266;-96
2022/08/25 14:08:33;;;;;;;7.63;2.58;;;;;;;31.32;36.24;93883.44;4921200;29;20199;-96
2022/08/25 14:11:26;;;;;;;3.70;2.00;;;;;;;31.10;38.27;93884.34;4878653;29;20745;-94
2022/08/25 14:14:22;;;;;;;3.67;2.15;;;;;;;31.03;39.07;93890.88;4897341;29;20239;-94
2022/08/25 14:17:08;;;;;;;3.05;2.10;;;;;;;30.91;38.60;93889.50;4891585;29;20251;-94
2022/08/25 14:19:54;;;;;;;2.30;1.98;;;;;;;30.03;38.37;93873.97;4908230;29;20210;-95
2022/08/25 14:22:39;;;;;;;6.32;2.33;;;;;;;30.47;38.37;93886.81;4906812;29;20222;-95
2022/08/25 14:25:26;;;;;;;3.58;2.20;;;;;;;30.46;36.58;93883.19;4897588;29;20224;-94
2022/08/25 14:28:18;;;;;;;4.78;2.25;;;;;;;30.34;37.90;93882.53;4892952;29;20195;-96
2022/08/25 14:31:13;;;;;;;2.22;2.00;;;;;;;30.34;36.45;93880.38;4905708;29;20434;-91
2022/08/25 14:34:04;;;;;;;2.50;2.15;;;;;;;30.23;36.82;93878.25;4906553;29;20207;-96
2022/08/25 14:36:48;;;;;;;2.40;2.20;;;;;;;29.54;38.56;93876.22;4910987;29;20221;-94
2022/08/25 14:39:32;;;;;;;2.40;2.20;;;;;;;30.11;37.45;93867.44;4922413;29;20308;-96
2022/08/25 14:42:16;;;;;;;2.38;2.17;;;;;;;30.54;36.57;93862.22;4914438;28;20221;-94
2022/08/25 14:45:01;;;;;;;3.45;1.80;;;;;;;30.71;37.25;93869.34;4900703;29;20360;-93
2022/08/25 14:47:45;;;;;;;2.55;1.98;;;;;;;30.89;35.01;93866.34;4931054;28;20322;-96
2022/08/25 14:50:30;;;;;;;5.47;2.30;;;;;;;30.63;37.04;93863.63;4934009;29;20285;-95
2022/08/25 14:53:14;;;;;;;2.47;2.28;;;;;;;30.46;35.68;93868.00;4928866;29;20214;-96
2022/08/25 14:55:59;;;;;;;2.92;2.20;;;;;;;30.23;37.13;93852.22;4917234;29;20199;-96
2022/08/25 14:58:43;;;;;;;2.35;2.10;;;;;;;30.63;35.10;93851.31;4915606;29;20206;-94
2022/08/25 15:01:30;;;;;;;2.95;1.80;;;;;;;30.45;34.93;93849.22;4913493;29;20289;-95
2022/08/25 15:04:21;;;;;;;2.10;1.90;;;;;;;31.08;34.76;93858.28;4910948;29;20351;-94
2022/08/25 15:09:06;;;;;;;2.60;1.90;;;;;;;30.91;32.43;93857.66;4912597;29;20353;-94
2022/08/25 15:10:10;;;;;;;3.88;1.90;;;;;;;30.55;33.37;93852.09;4927740;29;20316;-95
2022/08/25 15:12:55;;;;;;;2.05;1.77;;;;;;;30.80;32.48;93853.38;4931621;29;20224;-95
2022/08/25 15:15:43;;;;;;;3.70;1.85;;;;;;;30.24;34.91;93845.00;4920265;29;20209;-95
2022/08/25 15:18:27;;;;;;;4.90;1.98;;;;;;;30.68;34.19;93853.44;4918265;29;20226;-96
2022/08/25 15:21:11;;;;;;;1.80;1.67;;;;;;;30.71;34.10;93845.50;4926848;29;20214;-96
2022/08/25 15:23:59;;;;;;;5.22;1.80;;;;;;;30.43;33.84;93840.53;4933249;29;20271;-96
2022/08/25 15:26:50;;;;;;;5.30;2.10;;;;;;;30.40;34.56;93836.25;4911885;29;20304;-96
2022/08/25 15:29:35;;;;;;;2.47;2.05;;;;;;;29.65;35.65;93833.59;4923882;29;20522;-96
2022/08/25 15:32:19;;;;;;;3.03;1.50;;;;;;;30.30;35.09;93834.13;4905306;29;20203;-96
2022/08/25 15:35:03;;;;;;;3.13;1.77;;;;;;;30.72;32.47;93841.88;4918047;29;20346;-96
2022/08/25 15:38:01;;;;;;;5.03;1.95;;;;;;;30.47;34.25;93834.75;4925458;29;20202;-96
2022/08/25 15:40:45;;;;;;;3.47;1.83;;;;;;;30.38;35.83;93833.34;4921215;29;20235;-95
2022/08/25 15:43:30;;;;;;;6.20;3.45;;;;;;;30.77;35.69;93831.72;4926911;29;20277;-96
2022/08/25 15:46:19;;;;;;;3.63;2.30;;;;;;;30.54;35.31;93839.81;4894534;29;20226;-96
2022/08/25 15:49:03;;;;;;;5.90;2.67;;;;;;;29.99;35.52;93830.66;4916671;29;20285;-96
2022/08/25 15:51:47;;;;;;;3.40;2.20;;;;;;;30.19;35.70;93829.81;4906292;29;20203;-96
2022/08/25 15:54:32;;;;;;;9.50;1.92;;;;;;;29.98;34.08;93825.59;4905290;29;20300;-95
2022/08/25 15:57:17;;;;;;;3.95;1.65;;;;;;;30.44;34.06;93818.84;4911819;29;20218;-96
2022/08/25 16:00:01;;;;;;;2.78;1.88;;;;;;;30.58;32.34;93821.72;4901193;29;20358;-96
2022/08/25 16:02:45;;;;;;;5.50;1.70;;;;;;;30.75;32.11;93828.09;4889912;29;20211;-96
2022/08/25 16:05:29;;;;;;;2.95;1.63;;;;;;;30.85;31.97;93837.44;4906258;29;20345;-95
2022/08/25 16:08:14;;;;;;;2.08;1.83;;;;;;;31.05;32.62;93830.09;4936888;29;20206;-95
2022/08/25 16:10:58;;;;;;;8.32;3.20;;;;;;;30.79;35.21;93834.59;4905154;29;20239;-95
2022/08/25 16:13:46;;;;;;;7.60;3.00;;;;;;;30.37;37.24;93829.00;4904735;29;20207;-96
2022/08/25 16:16:35;;;;;;;2.95;2.65;;;;;;;29.81;38.01;93822.00;4906728;29;20642;-96
2022/08/25 16:19:19;;;;;;;2.28;2.00;;;;;;;29.77;38.11;93814.06;4905795;29;20203;-95
2022/08/25 16:22:05;;;;;;;3.13;2.72;;;;;;;29.63;39.20;93830.69;4919378;29;20211;-96
2022/08/25 16:24:49;;;;;;;7.10;3.17;;;;;;;29.67;38.39;93824.94;4913170;29;20660;-96
2022/08/25 16:27:34;;;;;;;2.50;2.30;;;;;;;29.58;38.78;93824.22;4911471;29;20668;-95
2022/08/25 16:30:21;;;;;;;3.22;2.65;;;;;;;29.33;38.93;93817.75;4895512;29;20198;-96
2022/08/25 16:33:06;;;;;;;4.43;3.30;;;;;;;29.70;38.20;93811.91;4923752;29;20231;-96
2022/08/25 16:35:50;;;;;;;4.35;3.30;;;;;;;29.88;37.33;93820.53;4923332;29;20191;-95
2022/08/25 16:38:39;;;;;;;2.60;2.40;;;;;;;29.32;38.99;93815.56;4912958;29;20317;-96
2022/08/25 16:41:32;;;;;;;3.58;2.58;;;;;;;29.13;38.62;93817.75;4939105;29;20281;-96
2022/08/25 16:44:18;;;;;;;7.32;2.70;;;;;;;29.15;38.38;93826.41;4896193;29;20207;-96
2022/08/25 16:47:03;;;;;;;2.63;2.42;;;;;;;29.49;38.19;93822.81;4927147;29;20318;-95
2022/08/25 16:49:47;;;;;;;6.22;2.70;;;;;;;29.03;38.92;93814.88;4914333;29;20214;-96
2022/08/25 16:55:48;;;;;;;13.23;4.60;;;;;;;28.79;40.43;93811.97;4890811;29;20198;-95
2022/08/25 16:58:33;;;;;;;7.90;5.32;;;;;;;28.80;40.45;93799.00;4885057;29;20274;-94
2022/08/25 17:01:19;;;;;;;8.85;5.07;;;;;;;28.90;40.63;93810.53;4873098;29;20283;-96
2022/08/25 17:04:03;;;;;;;3.47;2.97;;;;;;;29.28;38.11;93804.75;4917354;29;20218;-96
2022/08/25 17:06:48;;;;;;;9.25;3.63;;;;;;;28.87;40.03;93806.22;4919408;29;20222;-96
2022/08/25 17:09:33;;;;;;;12.25;6.90;;;;;;;28.91;39.89;93803.31;4928336;29;20223;-96
2022/08/25 17:12:19;;;;;;;9.30;5.22;;;;;;;28.86;39.48;93801.88;4933685;29;20218;-96
2022/08/25 17:15:03;;;;;;;9.30;3.97;;;;;;;28.77;40.36;93806.91;4923355;29;20215;-95
2022/08/25 17:17:47;;;;;;;4.00;3.00;;;;;;;28.67;44.07;93798.25;4949929;28;20286;-96
2022/08/25 17:20:33;;;;;;;4.35;2.58;;;;;;;28.46;45.55;93803.25;4928028;29;20234;-96
2022/08/25 17:23:17;;;;;;;2.20;2.08;;;;;;;28.14;47.06;93798.13;4923222;29;20238;-96
2022/08/25 17:26:04;;;;;;;2.95;2.40;;;;;;;28.24;46.82;93794.56;4913177;29;20215;-96
2022/08/25 17:28:48;;;;;;;8.68;2.83;;;;;;;28.25;45.76;93796.00;4931027;29;20222;-96
2022/08/25 17:31:36;;;;;;;4.90;2.67;;;;;;;28.28;46.67;93800.31;4918547;29;20196;-95
2022/08/25 17:34:20;;;;;;;2.70;2.50;;;;;;;28.28;45.43;93794.56;4923832;29;20202;-96
2022/08/25 17:37:05;;;;;;;3.70;2.85;;;;;;;27.87;45.30;93795.84;4914001;29;20651;-95
2022/08/25 17:39:49;;;;;;;6.38;3.10;;;;;;;27.71;45.66;93811.59;4894375;29;20206;-95
2022/08/25 17:42:33;;;;;;;8.43;5.18;;;;;;;27.59;46.29;93814.41;4912774;29;20234;-96
2022/08/25 17:45:18;;;;;;;7.03;5.22;;;;;;;26.74;48.94;93822.38;4910988;29;20306;-96
2022/08/25 17:48:02;;;;;;;11.85;5.53;;;;;;;27.01;48.19;93819.75;4919498;29;20207;-96
2022/08/25 17:50:46;;;;;;;14.23;6.13;;;;;;;27.07;48.79;93819.81;4900391;29;20225;-96
2022/08/25 17:53:35;;;;;;;8.48;5.75;;;;;;;25.96;52.11;93817.25;4910850;29;20202;-96
2022/08/25 17:56:45;;;;;;;10.48;6.07;;;;;;;25.94;51.87;93817.22;4924567;29;20590;-96
2022/08/25 17:59:30;;;;;;;13.80;6.03;;;;;;;26.22;50.68;93824.72;4905914;29;20221;-96
2022/08/25 18:02:14;;;;;;;13.85;6.88;;;;;;;26.24;50.19;93824.75;4925522;29;20726;-96
2022/08/25 18:04:58;;;;;;;14.88;6.53;;;;;;;26.09;50.96;93821.72;4884632;29;20211;-96
2022/08/25 18:07:42;;;;;;;12.13;6.63;;;;;;;25.35;53.56;93818.59;4914322;29;20218;-96
2022/08/25 18:10:27;;;;;;;11.57;6.50;;;;;;;25.12;54.00;93820.38;4891242;29;20295;-96
2022/08/25 18:13:13;;;;;;;18.23;6.82;;;;;;;25.27;54.04;93830.66;4905773;29;20207;-96
2022/08/25 18:15:58;;;;;;;12.20;6.82;;;;;;;25.13;54.60;93827.56;4917559;29;20204;-95
2022/08/25 18:18:44;;;;;;;10.30;6.18;;;;;;;25.09;54.12;93830.38;4902738;29;20233;-96
2022/08/25 18:21:30;;;;;;;11.90;7.07;;;;;;;25.12;54.05;93831.84;4912210;29;20746;-95
2022/08/25 18:24:15;;;;;;;20.88;8.30;;;;;;;24.76;55.40;93836.97;4901194;29;20207;-96
2022/08/25 18:27:00;;;;;;;17.05;7.65;;;;;;;24.41;56.73;93827.78;4916497;29;20320;-96
2022/08/25 18:46:06;;;;;;;20.08;7.97;;;;;;;24.12;57.83;93825.81;4971198;23;20248;-96
2022/08/25 18:48:50;;;;;;;19.17;8.88;;;;;;;24.20;57.90;93831.69;4932798;29;20258;-96
2022/08/25 18:51:36;;;;;;;20.27;8.35;;;;;;;24.20;58.16;93843.16;4898821;29;20192;-96
2022/08/25 18:54:46;;;;;;;15.30;7.90;;;;;;;24.10;58.91;93840.81;4919858;29;20266;-96
2022/08/25 18:57:35;;;;;;;19.95;7.95;;;;;;;24.11;58.93;93830.06;4930834;29;20684;-96
2022/08/25 19:00:45;;;;;;;19.05;8.93;;;;;;;23.87;60.05;93829.59;4922400;29;20266;-96
2022/08/25 19:03:59;;;;;;;21.95;8.18;;;;;;;23.82;59.36;93822.34;4940718;23;20257;-96
2022/08/25 19:06:51;;;;;;;18.17;9.15;;;;;;;23.71;59.96;93822.13;4921805;29;20299;-96
2022/08/25 19:09:44;;;;;;;15.32;8.90;;;;;;;23.66;60.75;93823.47;4929216;29;20298;-96
2022/08/25 19:12:39;;;;;;;27.63;8.90;;;;;;;23.43;60.90;93823.66;4976802;23;20247;-96
2022/08/25 19:21:26;;;;;;;22.83;8.82;;;;;;;23.40;61.13;93820.75;4974111;23;20242;-97
2022/08/25 19:43:11;;;;;;;20.40;9.10;;;;;;;23.05;63.52;93829.22;4930055;29;20314;-96
2022/08/25 19:45:55;;;;;;;23.50;9.32;;;;;;;22.93;63.86;93821.84;4926186;29;20238;-96
2022/08/25 19:48:40;;;;;;;15.38;9.02;;;;;;;23.18;63.46;93828.09;4926679;29;20225;-96
2022/08/25 19:51:29;;;;;;;20.77;10.35;;;;;;;22.99;64.29;93835.53;4914399;29;20326;-96
2022/08/25 19:57:15;;;;;;;18.45;9.20;;;;;;;22.89;63.95;93827.47;4905870;29;20259;-96
2022/08/25 20:00:00;;;;;;;17.55;9.65;;;;;;;22.96;63.75;93840.47;4894319;29;20215;-96
2022/08/25 20:02:47;;;;;;;21.60;10.10;;;;;;;23.10;63.73;93839.34;4890019;29;20204;-96
2022/08/25 20:08:33;;;;;;;20.90;9.63;;;;;;;23.14;63.53;93854.47;5023702;23;20309;-96
2022/08/25 20:11:17;;;;;;;19.98;9.65;;;;;;;23.05;63.62;93832.09;4947163;23;20246;-96
2022/08/25 20:14:02;;;;;;;18.30;9.40;;;;;;;22.86;64.80;93828.81;4931187;29;20261;-96
2022/08/25 20:16:47;;;;;;;26.52;10.35;;;;;;;22.65;65.75;93829.69;4941332;29;20242;-96
2022/08/25 20:19:31;;;;;;;23.48;10.15;;;;;;;22.70;66.50;93834.09;4927059;29;20306;-96
2022/08/25 20:22:14;;;;;;;20.48;9.93;;;;;;;22.74;66.30;93839.94;4902551;29;20218;-96
2022/08/25 20:25:30;;;;;;;24.55;10.57;;;;;;;22.75;66.81;93847.09;4925405;29;20274;-96
2022/08/25 20:28:15;;;;;;;21.17;9.95;;;;;;;22.67;67.45;93841.16;4909163;29;20325;-96
2022/08/25 20:37:22;;;;;;;19.77;9.73;;;;;;;22.76;68.02;93845.72;4924270;29;20274;-96
2022/08/25 20:40:07;;;;;;;21.30;10.90;;;;;;;22.64;68.25;93853.94;4912137;29;20195;-96
2022/08/25 20:42:53;;;;;;;27.08;12.02;;;;;;;22.73;68.54;93855.63;4928548;29;20199;-96
2022/08/25 20:45:38;;;;;;;22.80;11.05;;;;;;;22.68;69.00;93853.31;4910574;29;20310;-96
2022/08/25 20:48:22;;;;;;;26.10;10.90;;;;;;;22.63;69.09;93846.78;4901671;29;20187;-96
2022/08/25 20:51:19;;;;;;;21.63;11.23;;;;;;;22.75;69.25;93847.09;4931437;29;20660;-95
2022/08/25 20:54:35;;;;;;;18.90;10.57;;;;;;;22.59;69.31;93835.25;4973684;23;20277;-96
2022/08/25 20:57:22;;;;;;;26.70;11.10;;;;;;;22.57;69.45;93829.50;4912497;29;20198;-96
2022/08/25 21:00:08;;;;;;;25.80;11.10;;;;;;;22.61;69.43;93835.31;4947410;29;20194;-96
2022/08/25 21:02:53;;;;;;;17.92;10.50;;;;;;;22.70;69.54;93842.69;4924070;29;20218;-95
2022/08/25 21:05:40;;;;;;;22.20;11.13;;;;;;;22.82;69.47;93853.69;4917859;29;20257;-94
2022/08/25 21:08:26;;;;;;;18.98;11.25;;;;;;;22.64;69.97;93847.50;4938124;29;20263;-96
2022/08/25 21:11:12;;;;;;;27.38;11.63;;;;;;;22.53;70.28;93843.66;4938251;29;20195;-96
2022/08/25 21:14:00;;;;;;;21.67;11.68;;;;;;;22.50;70.70;93845.03;4944155;28;20237;-96
2022/08/25 21:16:45;;;;;;;26.75;11.05;;;;;;;22.58;70.90;93850.94;4943905;28;20265;-96
2022/08/25 21:19:32;;;;;;;20.67;11.68;;;;;;;22.34;71.90;93845.31;4934341;29;20195;-96
2022/08/25 21:36:43;;;;;;;30.20;12.90;;;;;;;22.35;72.27;93837.47;4944731;29;20222;-95
2022/08/25 21:39:28;;;;;;;23.92;12.65;;;;;;;22.45;71.86;93849.19;4918760;29;20206;-95
2022/08/25 21:42:12;;;;;;;22.25;11.98;;;;;;;22.10;73.70;93847.53;4939954;29;20206;-96
2022/08/25 21:45:03;;;;;;;26.15;12.70;;;;;;;21.91;75.16;93851.97;4953148;28;20264;-96
2022/08/25 21:47:48;;;;;;;19.35;11.90;;;;;;;21.91;74.94;93854.84;4958729;29;20257;-96
2022/08/25 21:50:34;;;;;;;26.15;12.63;;;;;;;22.20;74.12;93856.38;4962873;28;20304;-96
2022/08/25 21:53:18;;;;;;;26.00;11.85;;;;;;;22.27;73.35;93848.72;4939159;29;20206;-96
2022/08/25 21:56:05;;;;;;;30.17;12.32;;;;;;;22.14;73.06;93851.25;4924081;29;20198;-96
2022/08/25 21:58:49;;;;;;;20.75;11.23;;;;;;;22.03;72.78;93846.66;4933781;29;20201;-96
2022/08/25 22:01:34;;;;;;;24.83;11.45;;;;;;;21.76;73.47;93848.03;4933599;29;20241;-96
2022/08/25 22:04:19;;;;;;;20.92;12.13;;;;;;;21.56;74.79;93855.25;4941063;28;20229;-96
2022/08/25 22:07:03;;;;;;;24.92;12.48;;;;;;;21.45;76.13;93850.66;4924667;29;20230;-96
2022/08/25 22:09:47;;;;;;;19.58;12.60;;;;;;;21.33;76.28;93848.91;4925693;29;20205;-96
2022/08/25 22:12:32;;;;;;;24.58;13.55;;;;;;;21.27;76.55;93845.88;4947959;29;20220;-96
2022/08/25 22:15:17;;;;;;;23.83;12.93;;;;;;;21.06;77.34;93845.88;4946765;28;20202;-96
2022/08/25 22:18:19;;;;;;;26.42;13.45;;;;;;;20.78;78.93;93834.34;5529015;23;20231;-93
2022/08/25 22:21:04;;;;;;;27.58;13.00;;;;;;;20.84;78.70;93834.53;4912285;29;20282;-96
2022/08/25 22:23:50;;;;;;;24.85;13.23;;;;;;;20.90;78.23;93831.88;4892823;29;20260;-96
2022/08/25 22:26:35;;;;;;;16.55;13.10;;;;;;;20.83;78.05;93830.94;4905766;29;20224;-96
2022/08/25 22:29:20;;;;;;;32.13;13.82;;;;;;;20.91;78.21;93839.75;4907951;29;20215;-96
2022/08/25 22:35:13;;;;;;;27.70;12.07;;;;;;;20.67;78.99;93832.56;4930135;29;20220;-96
2022/08/25 22:38:02;;;;;;;26.73;13.00;;;;;;;20.68;79.13;93843.28;4934168;29;20210;-96
2022/08/25 22:40:46;;;;;;;22.02;12.70;;;;;;;20.34;80.24;93825.81;4930574;29;20241;-96
2022/08/25 22:49:38;;;;;;;25.75;14.73;;;;;;;20.27;82.41;93849.00;5255178;23;20317;-96
2022/08/25 22:52:25;;;;;;;26.30;13.40;;;;;;;20.28;81.85;93845.50;4922147;29;20237;-96
2022/08/25 23:38:23;;;;;;;23.73;14.00;;;;;;;19.83;83.65;93814.78;5563756;23;20241;-96
2022/08/25 23:41:09;;;;;;;22.20;14.37;;;;;;;19.86;83.28;93807.78;4941267;29;20279;-96
